sensor_id;sensor_type;location;lat;lon;timestamp;pressure;altitude;pressure_sealevel;temperature;humidity
73748;BME280;62056;52.130;5.428;2022-12-18T00:01:16;103115.44;;;-2.76;75.50
73748;BME280;62056;52.130;5.428;2022-12-18T00:03:43;103118.34;;;-2.79;73.97
73748;BME280;62056;52.130;5.428;2022-12-18T00:06:11;103114.50;;;-2.85;73.27
73748;BME280;62056;52.130;5.428;2022-12-18T00:08:38;103100.66;;;-2.85;74.37
73748;BME280;62056;52.130;5.428;2022-12-18T00:11:08;103097.38;;;-2.87;76.20
73748;BME280;62056;52.130;5.428;2022-12-18T00:13:36;103085.59;;;-2.91;75.64
73748;BME280;62056;52.130;5.428;2022-12-18T00:16:06;103091.25;;;-2.96;76.01
73748;BME280;62056;52.130;5.428;2022-12-18T00:18:33;103090.41;;;-2.96;75.79
73748;BME280;62056;52.130;5.428;2022-12-18T00:21:02;103095.91;;;-2.99;73.49
73748;BME280;62056;52.130;5.428;2022-12-18T00:23:29;103089.19;;;-3.02;73.94
73748;BME280;62056;52.130;5.428;2022-12-18T00:26:04;103098.63;;;-3.01;74.65
73748;BME280;62056;52.130;5.428;2022-12-18T00:28:31;103100.69;;;-3.05;72.47
73748;BME280;62056;52.130;5.428;2022-12-18T00:31:04;103111.09;;;-3.05;75.16
73748;BME280;62056;52.130;5.428;2022-12-18T00:33:31;103106.75;;;-3.04;75.12
73748;BME280;62056;52.130;5.428;2022-12-18T00:36:07;103096.47;;;-3.06;75.15
73748;BME280;62056;52.130;5.428;2022-12-18T00:38:34;103095.66;;;-3.06;73.43
73748;BME280;62056;52.130;5.428;2022-12-18T00:41:01;103096.59;;;-3.07;73.73
73748;BME280;62056;52.130;5.428;2022-12-18T00:43:28;103084.56;;;-3.08;73.03
73748;BME280;62056;52.130;5.428;2022-12-18T00:45:55;103093.19;;;-3.08;72.34
73748;BME280;62056;52.130;5.428;2022-12-18T00:48:22;103094.41;;;-3.12;74.40
73748;BME280;62056;52.130;5.428;2022-12-18T00:50:49;103091.00;;;-3.12;73.06
73748;BME280;62056;52.130;5.428;2022-12-18T00:53:16;103093.59;;;-3.12;74.83
73748;BME280;62056;52.130;5.428;2022-12-18T00:55:43;103103.03;;;-3.11;75.26
73748;BME280;62056;52.130;5.428;2022-12-18T00:58:12;103094.41;;;-3.12;74.94
73748;BME280;62056;52.130;5.428;2022-12-18T01:00:39;103094.41;;;-3.12;74.42
73748;BME280;62056;52.130;5.428;2022-12-18T01:03:06;103091.81;;;-3.12;75.84
73748;BME280;62056;52.130;5.428;2022-12-18T01:05:33;103088.53;;;-3.14;75.02
73748;BME280;62056;52.130;5.428;2022-12-18T01:08:00;103078.25;;;-3.15;76.25
73748;BME280;62056;52.130;5.428;2022-12-18T01:10:26;103075.09;;;-3.19;75.21
73748;BME280;62056;52.130;5.428;2022-12-18T01:12:53;103076.88;;;-3.19;76.80
73748;BME280;62056;52.130;5.428;2022-12-18T01:15:20;103079.63;;;-3.21;75.35
73748;BME280;62056;52.130;5.428;2022-12-18T01:17:46;103078.81;;;-3.21;75.34
73748;BME280;62056;52.130;5.428;2022-12-18T01:20:13;103084.97;;;-3.22;74.88
73748;BME280;62056;52.130;5.428;2022-12-18T01:22:40;103090.19;;;-3.22;75.57
73748;BME280;62056;52.130;5.428;2022-12-18T01:25:07;103095.53;;;-3.24;74.80
73748;BME280;62056;52.130;5.428;2022-12-18T01:27:34;103098.13;;;-3.24;77.05
73748;BME280;62056;52.130;5.428;2022-12-18T01:30:01;103102.66;;;-3.26;75.40
73748;BME280;62056;52.130;5.428;2022-12-18T01:32:30;103113.06;;;-3.26;77.68
73748;BME280;62056;52.130;5.428;2022-12-18T01:34:57;103102.78;;;-3.28;74.49
73748;BME280;62056;52.130;5.428;2022-12-18T01:37:23;103103.59;;;-3.27;76.04
73748;BME280;62056;52.130;5.428;2022-12-18T01:39:52;103101.00;;;-3.27;76.99
73748;BME280;62056;52.130;5.428;2022-12-18T01:42:21;103103.59;;;-3.27;75.89
73748;BME280;62056;52.130;5.428;2022-12-18T01:45:01;103101.00;;;-3.27;77.17
73748;BME280;62056;52.130;5.428;2022-12-18T01:47:36;103109.09;;;-3.30;75.01
73748;BME280;62056;52.130;5.428;2022-12-18T01:50:09;103114.59;;;-3.33;76.32
73748;BME280;62056;52.130;5.428;2022-12-18T01:52:37;103112.13;;;-3.35;78.40
73748;BME280;62056;52.130;5.428;2022-12-18T01:55:06;103106.22;;;-3.37;76.45
73748;BME280;62056;52.130;5.428;2022-12-18T01:57:33;103113.34;;;-3.39;75.78
73748;BME280;62056;52.130;5.428;2022-12-18T02:00:05;103108.41;;;-3.42;74.66
73748;BME280;62056;52.130;5.428;2022-12-18T02:02:32;103108.81;;;-3.47;73.72
73748;BME280;62056;52.130;5.428;2022-12-18T02:05:00;103114.16;;;-3.48;76.34
73748;BME280;62056;52.130;5.428;2022-12-18T02:12:58;103124.28;;;-3.55;76.23
73748;BME280;62056;52.130;5.428;2022-12-18T02:15:38;103115.81;;;-3.57;76.98
73748;BME280;62056;52.130;5.428;2022-12-18T02:18:16;103120.44;;;-3.60;74.16
73748;BME280;62056;52.130;5.428;2022-12-18T02:20:56;103119.78;;;-3.62;76.32
73748;BME280;62056;52.130;5.428;2022-12-18T02:23:50;103113.06;;;-3.65;78.14
73748;BME280;62056;52.130;5.428;2022-12-18T02:26:27;103115.13;;;-3.69;76.58
73748;BME280;62056;52.130;5.428;2022-12-18T02:29:02;103119.47;;;-3.69;76.72
73748;BME280;62056;52.130;5.428;2022-12-18T02:31:36;103124.00;;;-3.71;74.71
73748;BME280;62056;52.130;5.428;2022-12-18T02:34:08;103115.66;;;-3.75;76.11
73748;BME280;62056;52.130;5.428;2022-12-18T02:36:38;103126.19;;;-3.76;76.76
73748;BME280;62056;52.130;5.428;2022-12-18T02:39:07;103113.31;;;-3.78;76.48
73748;BME280;62056;52.130;5.428;2022-12-18T02:41:35;103113.44;;;-3.79;76.04
73748;BME280;62056;52.130;5.428;2022-12-18T02:44:10;103108.53;;;-3.82;75.67
73748;BME280;62056;52.130;5.428;2022-12-18T02:46:43;103105.25;;;-3.84;76.61
73748;BME280;62056;52.130;5.428;2022-12-18T02:49:34;103099.47;;;-3.88;75.80
73748;BME280;62056;52.130;5.428;2022-12-18T02:52:11;103081.56;;;-3.91;75.47
73748;BME280;62056;52.130;5.428;2022-12-18T02:54:57;103099.88;;;-3.93;76.70
73748;BME280;62056;52.130;5.428;2022-12-18T03:00:23;103091.53;;;-3.96;76.11
73748;BME280;62056;52.130;5.428;2022-12-18T03:05:30;103093.59;;;-4.00;76.24
73748;BME280;62056;52.130;5.428;2022-12-18T03:08:03;103083.31;;;-4.01;76.36
73748;BME280;62056;52.130;5.428;2022-12-18T03:10:32;103078.25;;;-4.03;77.25
73748;BME280;62056;52.130;5.428;2022-12-18T03:13:12;103080.28;;;-4.07;76.29
73748;BME280;62056;52.130;5.428;2022-12-18T03:15:45;103077.84;;;-4.08;75.95
73748;BME280;62056;52.130;5.428;2022-12-18T03:18:28;103079.88;;;-4.12;75.93
73748;BME280;62056;52.130;5.428;2022-12-18T03:20:59;103077.41;;;-4.13;76.29
73748;BME280;62056;52.130;5.428;2022-12-18T03:23:30;103074.94;;;-4.15;75.81
73748;BME280;62056;52.130;5.428;2022-12-18T03:26:01;103076.84;;;-4.17;76.41
73748;BME280;62056;52.130;5.428;2022-12-18T03:28:36;103072.88;;;-4.21;76.13
73748;BME280;62056;52.130;5.428;2022-12-18T03:31:07;103072.47;;;-4.26;75.02
73748;BME280;62056;52.130;5.428;2022-12-18T03:33:42;103066.44;;;-4.27;75.75
73748;BME280;62056;52.130;5.428;2022-12-18T03:36:12;103058.91;;;-4.30;75.61
73748;BME280;62056;52.130;5.428;2022-12-18T03:38:38;103061.50;;;-4.30;75.96
73748;BME280;62056;52.130;5.428;2022-12-18T03:46:24;103053.16;;;-4.33;75.78
73748;BME280;62056;52.130;5.428;2022-12-18T03:48:58;103049.72;;;-4.34;76.24
73748;BME280;62056;52.130;5.428;2022-12-18T03:51:33;103044.81;;;-4.37;75.49
73748;BME280;62056;52.130;5.428;2022-12-18T03:54:04;103046.59;;;-4.37;75.88
73748;BME280;62056;52.130;5.428;2022-12-18T03:56:38;103047.53;;;-4.38;75.88
73748;BME280;62056;52.130;5.428;2022-12-18T03:59:07;103051.09;;;-4.39;75.36
73748;BME280;62056;52.130;5.428;2022-12-18T04:01:39;103045.91;;;-4.39;75.42
73748;BME280;62056;52.130;5.428;2022-12-18T04:04:08;103039.06;;;-4.40;75.21
73748;BME280;62056;52.130;5.428;2022-12-18T04:06:37;103042.63;;;-4.41;75.64
73748;BME280;62056;52.130;5.428;2022-12-18T04:09:05;103043.69;;;-4.44;76.15
73748;BME280;62056;52.130;5.428;2022-12-18T04:11:31;103036.84;;;-4.45;75.72
73748;BME280;62056;52.130;5.428;2022-12-18T04:13:58;103035.19;;;-4.46;75.86
73748;BME280;62056;52.130;5.428;2022-12-18T04:16:30;103031.78;;;-4.47;75.49
73748;BME280;62056;52.130;5.428;2022-12-18T04:18:56;103023.31;;;-4.49;75.06
73748;BME280;62056;52.130;5.428;2022-12-18T04:21:23;103013.88;;;-4.50;75.34
73748;BME280;62056;52.130;5.428;2022-12-18T04:23:50;103020.03;;;-4.51;75.33
73748;BME280;62056;52.130;5.428;2022-12-18T04:26:16;103020.13;;;-4.52;74.66
73748;BME280;62056;52.130;5.428;2022-12-18T04:28:43;103013.31;;;-4.53;74.49
73748;BME280;62056;52.130;5.428;2022-12-18T04:31:10;103006.47;;;-4.54;74.46
73748;BME280;62056;52.130;5.428;2022-12-18T04:33:37;103011.66;;;-4.54;74.22
73748;BME280;62056;52.130;5.428;2022-12-18T04:36:04;103010.97;;;-4.56;74.67
73748;BME280;62056;52.130;5.428;2022-12-18T04:38:31;103013.72;;;-4.58;75.42
73748;BME280;62056;52.130;5.428;2022-12-18T04:40:58;103012.06;;;-4.59;75.28
73748;BME280;62056;52.130;5.428;2022-12-18T04:43:25;103020.00;;;-4.60;74.69
73748;BME280;62056;52.130;5.428;2022-12-18T04:45:51;103025.06;;;-4.59;76.58
73748;BME280;62056;52.130;5.428;2022-12-18T04:48:18;103037.22;;;-4.59;75.25
73748;BME280;62056;52.130;5.428;2022-12-18T04:50:46;103029.56;;;-4.61;74.35
73748;BME280;62056;52.130;5.428;2022-12-18T04:53:14;103039.13;;;-4.61;74.86
73748;BME280;62056;52.130;5.428;2022-12-18T04:55:40;103040.09;;;-4.62;75.24
73748;BME280;62056;52.130;5.428;2022-12-18T04:58:07;103041.84;;;-4.63;75.60
73748;BME280;62056;52.130;5.428;2022-12-18T05:00:35;103049.91;;;-4.66;74.83
73748;BME280;62056;52.130;5.428;2022-12-18T05:03:02;103051.69;;;-4.66;73.40
73748;BME280;62056;52.130;5.428;2022-12-18T05:05:29;103054.97;;;-4.64;76.43
73748;BME280;62056;52.130;5.428;2022-12-18T05:07:56;103056.88;;;-4.66;76.37
73748;BME280;62056;52.130;5.428;2022-12-18T05:10:23;103063.84;;;-4.67;76.10
73748;BME280;62056;52.130;5.428;2022-12-18T05:12:50;103065.63;;;-4.68;74.88
73748;BME280;62056;52.130;5.428;2022-12-18T05:15:28;103063.84;;;-4.67;75.62
73748;BME280;62056;52.130;5.428;2022-12-18T05:17:56;103065.63;;;-4.68;75.29
73748;BME280;62056;52.130;5.428;2022-12-18T05:20:24;103074.22;;;-4.67;75.22
73748;BME280;62056;52.130;5.428;2022-12-18T05:22:51;103068.34;;;-4.69;74.82
73748;BME280;62056;52.130;5.428;2022-12-18T05:25:19;103072.72;;;-4.70;75.20
73748;BME280;62056;52.130;5.428;2022-12-18T05:27:46;103072.84;;;-4.71;74.35
73748;BME280;62056;52.130;5.428;2022-12-18T05:30:13;103077.34;;;-4.73;73.67
73748;BME280;62056;52.130;5.428;2022-12-18T05:32:40;103091.00;;;-4.71;76.27
73748;BME280;62056;52.130;5.428;2022-12-18T05:35:08;103088.56;;;-4.73;74.00
73748;BME280;62056;52.130;5.428;2022-12-18T05:37:35;103090.47;;;-4.75;74.54
73748;BME280;62056;52.130;5.428;2022-12-18T05:40:08;103093.88;;;-4.74;74.06
73748;BME280;62056;52.130;5.428;2022-12-18T05:42:35;103071.31;;;-4.74;75.17
73748;BME280;62056;52.130;5.428;2022-12-18T05:45:02;103073.09;;;-4.74;74.78
73748;BME280;62056;52.130;5.428;2022-12-18T05:47:29;103065.31;;;-4.74;75.51
73748;BME280;62056;52.130;5.428;2022-12-18T05:49:56;103062.84;;;-4.76;75.19
73748;BME280;62056;52.130;5.428;2022-12-18T05:52:23;103066.25;;;-4.75;76.11
73748;BME280;62056;52.130;5.428;2022-12-18T05:54:50;103056.97;;;-4.78;75.23
73748;BME280;62056;52.130;5.428;2022-12-18T05:57:16;103056.97;;;-4.78;75.08
73748;BME280;62056;52.130;5.428;2022-12-18T05:59:43;103057.09;;;-4.79;74.88
73748;BME280;62056;52.130;5.428;2022-12-18T06:02:09;103052.84;;;-4.80;73.69
73748;BME280;62056;52.130;5.428;2022-12-18T06:04:36;103047.78;;;-4.82;75.57
73748;BME280;62056;52.130;5.428;2022-12-18T06:07:03;103050.50;;;-4.83;74.89
73748;BME280;62056;52.130;5.428;2022-12-18T06:09:29;103051.47;;;-4.84;75.13
73748;BME280;62056;52.130;5.428;2022-12-18T06:11:56;103054.06;;;-4.84;76.31
73748;BME280;62056;52.130;5.428;2022-12-18T06:14:23;103043.00;;;-4.86;75.27
73748;BME280;62056;52.130;5.428;2022-12-18T06:16:52;103035.31;;;-4.88;75.14
73748;BME280;62056;52.130;5.428;2022-12-18T06:19:19;103036.13;;;-4.88;76.04
73748;BME280;62056;52.130;5.428;2022-12-18T06:21:46;103034.50;;;-4.89;75.75
73748;BME280;62056;52.130;5.428;2022-12-18T06:24:13;103032.84;;;-4.90;74.71
73748;BME280;62056;52.130;5.428;2022-12-18T06:26:39;103030.53;;;-4.93;75.52
73748;BME280;62056;52.130;5.428;2022-12-18T06:29:06;103023.81;;;-4.95;75.02
73748;BME280;62056;52.130;5.428;2022-12-18T06:31:33;103020.41;;;-4.96;74.88
73748;BME280;62056;52.130;5.428;2022-12-18T06:34:02;103014.53;;;-4.98;75.93
73748;BME280;62056;52.130;5.428;2022-12-18T06:36:29;103012.88;;;-4.99;75.65
73748;BME280;62056;52.130;5.428;2022-12-18T06:38:56;103017.25;;;-4.99;75.50
73748;BME280;62056;52.130;5.428;2022-12-18T06:41:22;103012.19;;;-5.01;76.66
73748;BME280;62056;52.130;5.428;2022-12-18T06:43:49;103014.91;;;-5.02;75.75
73748;BME280;62056;52.130;5.428;2022-12-18T06:46:19;103011.75;;;-5.06;76.97
73748;BME280;62056;52.130;5.428;2022-12-18T06:48:48;103003.13;;;-5.06;76.40
73748;BME280;62056;52.130;5.428;2022-12-18T06:51:17;103002.31;;;-5.07;75.41
73748;BME280;62056;52.130;5.428;2022-12-18T06:53:44;102994.81;;;-5.10;75.86
73748;BME280;62056;52.130;5.428;2022-12-18T06:56:11;102996.56;;;-5.11;75.30
73748;BME280;62056;52.130;5.428;2022-12-18T06:58:38;103001.06;;;-5.13;75.86
73748;BME280;62056;52.130;5.428;2022-12-18T07:01:07;102992.44;;;-5.13;76.21
73748;BME280;62056;52.130;5.428;2022-12-18T07:03:34;102982.34;;;-5.16;75.56
73748;BME280;62056;52.130;5.428;2022-12-18T07:06:01;102982.47;;;-5.18;76.44
73748;BME280;62056;52.130;5.428;2022-12-18T07:08:29;102977.41;;;-5.19;75.46
73748;BME280;62056;52.130;5.428;2022-12-18T07:10:56;102975.78;;;-5.20;75.77
73748;BME280;62056;52.130;5.428;2022-12-18T07:13:23;102975.88;;;-5.22;75.60
73748;BME280;62056;52.130;5.428;2022-12-18T07:15:49;102983.69;;;-5.22;75.36
73748;BME280;62056;52.130;5.428;2022-12-18T07:18:16;102974.94;;;-5.21;75.90
73748;BME280;62056;52.130;5.428;2022-12-18T07:20:43;102973.41;;;-5.23;76.89
73748;BME280;62056;52.130;5.428;2022-12-18T07:23:11;102972.88;;;-5.27;76.22
73748;BME280;62056;52.130;5.428;2022-12-18T07:25:37;102973.69;;;-5.26;76.98
73748;BME280;62056;52.130;5.428;2022-12-18T07:28:04;102970.28;;;-5.27;76.39
73748;BME280;62056;52.130;5.428;2022-12-18T07:30:31;102972.03;;;-5.28;76.05
73748;BME280;62056;52.130;5.428;2022-12-18T07:32:58;102970.41;;;-5.29;75.85
73748;BME280;62056;52.130;5.428;2022-12-18T07:35:24;102956.34;;;-5.26;76.85
73748;BME280;62056;52.130;5.428;2022-12-18T07:37:51;102950.06;;;-5.23;76.79
73748;BME280;62056;52.130;5.428;2022-12-18T07:40:17;102950.53;;;-5.18;76.80
73748;BME280;62056;52.130;5.428;2022-12-18T07:42:44;102950.69;;;-5.10;78.08
73748;BME280;62056;52.130;5.428;2022-12-18T07:45:11;102951.81;;;-5.03;78.11
73748;BME280;62056;52.130;5.428;2022-12-18T07:47:37;102936.53;;;-4.96;77.02
73748;BME280;62056;52.130;5.428;2022-12-18T07:50:05;102934.22;;;-4.90;77.37
73748;BME280;62056;52.130;5.428;2022-12-18T07:52:31;102927.69;;;-4.84;78.07
73748;BME280;62056;52.130;5.428;2022-12-18T07:54:58;102925.38;;;-4.77;77.40
73748;BME280;62056;52.130;5.428;2022-12-18T07:57:27;102918.84;;;-4.72;78.29
73748;BME280;62056;52.130;5.428;2022-12-18T08:00:14;102918.16;;;-4.64;78.25
73748;BME280;62056;52.130;5.428;2022-12-18T08:02:41;102920.22;;;-4.58;78.30
73748;BME280;62056;52.130;5.428;2022-12-18T08:05:08;102920.50;;;-4.51;78.58
73748;BME280;62056;52.130;5.428;2022-12-18T08:07:35;102923.25;;;-4.43;79.16
73748;BME280;62056;52.130;5.428;2022-12-18T08:10:01;102905.34;;;-4.36;79.03
73748;BME280;62056;52.130;5.428;2022-12-18T08:12:29;102896.06;;;-4.29;79.19
73748;BME280;62056;52.130;5.428;2022-12-18T08:14:55;102893.84;;;-4.24;79.02
73748;BME280;62056;52.130;5.428;2022-12-18T08:17:22;102897.69;;;-4.18;79.22
73748;BME280;62056;52.130;5.428;2022-12-18T08:19:49;102903.03;;;-4.10;79.08
73748;BME280;62056;52.130;5.428;2022-12-18T08:22:15;102912.56;;;-4.01;78.63
73748;BME280;62056;52.130;5.428;2022-12-18T08:24:42;102904.53;;;-3.98;79.13
73748;BME280;62056;52.130;5.428;2022-12-18T08:27:09;102912.72;;;-3.93;80.37
73748;BME280;62056;52.130;5.428;2022-12-18T08:29:55;102926.94;;;-3.87;80.03
73748;BME280;62056;52.130;5.428;2022-12-18T08:32:22;102931.59;;;-3.81;79.53
73748;BME280;62056;52.130;5.428;2022-12-18T08:34:49;102934.31;;;-3.73;78.29
73748;BME280;62056;52.130;5.428;2022-12-18T08:37:15;102928.38;;;-3.65;79.20
73748;BME280;62056;52.130;5.428;2022-12-18T08:39:42;102926.19;;;-3.60;78.53
73748;BME280;62056;52.130;5.428;2022-12-18T08:42:09;102931.78;;;-3.55;78.74
73748;BME280;62056;52.130;5.428;2022-12-18T08:44:54;102925.22;;;-3.49;77.53
73748;BME280;62056;52.130;5.428;2022-12-18T08:47:20;102909.97;;;-3.44;78.28
73748;BME280;62056;52.130;5.428;2022-12-18T08:49:47;102919.13;;;-3.40;78.62
73748;BME280;62056;52.130;5.428;2022-12-18T08:52:13;102923.94;;;-3.35;77.65
73748;BME280;62056;52.130;5.428;2022-12-18T08:54:40;102927.72;;;-3.30;77.82
73748;BME280;62056;52.130;5.428;2022-12-18T08:57:06;102923.88;;;-3.26;79.82
73748;BME280;62056;52.130;5.428;2022-12-18T08:59:33;102917.56;;;-3.23;78.75
73748;BME280;62056;52.130;5.428;2022-12-18T09:01:59;102927.41;;;-3.17;77.95
73748;BME280;62056;52.130;5.428;2022-12-18T09:04:26;102933.16;;;-3.13;78.25
73748;BME280;62056;52.130;5.428;2022-12-18T09:06:53;102940.38;;;-3.07;77.75
73748;BME280;62056;52.130;5.428;2022-12-18T09:09:19;102927.78;;;-3.02;77.80
73748;BME280;62056;52.130;5.428;2022-12-18T09:11:46;102915.94;;;-2.96;77.62
73748;BME280;62056;52.130;5.428;2022-12-18T09:14:13;102922.50;;;-2.92;77.54
73748;BME280;62056;52.130;5.428;2022-12-18T09:16:39;102921.09;;;-2.87;76.91
73748;BME280;62056;52.130;5.428;2022-12-18T09:19:06;102920.53;;;-2.80;78.44
73748;BME280;62056;52.130;5.428;2022-12-18T09:21:35;102914.72;;;-2.74;79.05
73748;BME280;62056;52.130;5.428;2022-12-18T09:24:03;102915.94;;;-2.69;78.30
73748;BME280;62056;52.130;5.428;2022-12-18T09:26:34;102918.78;;;-2.62;78.61
73748;BME280;62056;52.130;5.428;2022-12-18T09:29:02;102919.94;;;-2.56;79.13
73748;BME280;62056;52.130;5.428;2022-12-18T09:31:28;102915.28;;;-2.53;77.12
73748;BME280;62056;52.130;5.428;2022-12-18T09:33:56;102914.81;;;-2.48;78.53
73748;BME280;62056;52.130;5.428;2022-12-18T09:36:23;102910.94;;;-2.44;78.93
73748;BME280;62056;52.130;5.428;2022-12-18T09:38:50;102902.84;;;-2.41;78.26
73748;BME280;62056;52.130;5.428;2022-12-18T09:41:45;102892.63;;;-2.34;77.44
73748;BME280;62056;52.130;5.428;2022-12-18T09:46:58;102886.91;;;-2.20;78.27
73748;BME280;62056;52.130;5.428;2022-12-18T09:49:30;102888.38;;;-2.17;77.54
73748;BME280;62056;52.130;5.428;2022-12-18T09:52:02;102885.16;;;-2.11;77.46
73748;BME280;62056;52.130;5.428;2022-12-18T09:54:41;102876.75;;;-2.05;77.16
73748;BME280;62056;52.130;5.428;2022-12-18T09:57:22;102867.50;;;-1.99;77.65
73748;BME280;62056;52.130;5.428;2022-12-18T10:00:02;102870.59;;;-1.96;76.92
73748;BME280;62056;52.130;5.428;2022-12-18T10:02:30;102870.97;;;-1.91;77.11
73748;BME280;62056;52.130;5.428;2022-12-18T10:05:12;102860.88;;;-1.86;77.17
73748;BME280;62056;52.130;5.428;2022-12-18T10:07:55;102867.94;;;-1.78;77.87
73748;BME280;62056;52.130;5.428;2022-12-18T10:15:42;102865.44;;;-1.61;77.11
73748;BME280;62056;52.130;5.428;2022-12-18T10:20:52;102852.09;;;-1.50;77.11
73748;BME280;62056;52.130;5.428;2022-12-18T10:23:33;102861.13;;;-1.45;77.20
73748;BME280;62056;52.130;5.428;2022-12-18T10:26:11;102852.97;;;-1.41;76.26
73748;BME280;62056;52.130;5.428;2022-12-18T10:28:43;102857.59;;;-1.35;76.97
73748;BME280;62056;52.130;5.428;2022-12-18T10:31:21;102852.69;;;-1.30;76.09
73748;BME280;62056;52.130;5.428;2022-12-18T10:33:50;102851.06;;;-1.23;80.03
73748;BME280;62056;52.130;5.428;2022-12-18T10:36:17;102839.66;;;-1.22;77.21
73748;BME280;62056;52.130;5.428;2022-12-18T10:38:44;102824.50;;;-1.18;76.09
73748;BME280;62056;52.130;5.428;2022-12-18T10:43:44;102845.25;;;-1.09;75.85
73748;BME280;62056;52.130;5.428;2022-12-18T10:48:46;102826.81;;;-0.99;79.37
73748;BME280;62056;52.130;5.428;2022-12-18T10:51:26;102820.16;;;-0.93;76.73
73748;BME280;62056;52.130;5.428;2022-12-18T10:54:00;102811.97;;;-0.90;76.94
73748;BME280;62056;52.130;5.428;2022-12-18T10:56:30;102816.06;;;-0.88;76.74
73748;BME280;62056;52.130;5.428;2022-12-18T10:59:03;102811.34;;;-0.84;75.86
73748;BME280;62056;52.130;5.428;2022-12-18T11:04:24;102812.00;;;-0.74;76.50
73748;BME280;62056;52.130;5.428;2022-12-18T11:06:59;102802.22;;;-0.72;76.79
73748;BME280;62056;52.130;5.428;2022-12-18T11:09:30;102797.47;;;-0.68;77.23
73748;BME280;62056;52.130;5.428;2022-12-18T11:12:00;102800.75;;;-0.66;76.06
73748;BME280;62056;52.130;5.428;2022-12-18T11:14:31;102781.31;;;-0.64;74.32
73748;BME280;62056;52.130;5.428;2022-12-18T11:16:59;102785.22;;;-0.59;75.22
73748;BME280;62056;52.130;5.428;2022-12-18T11:19:55;102790.09;;;-0.56;74.88
73748;BME280;62056;52.130;5.428;2022-12-18T11:22:26;102775.56;;;-0.51;74.91
73748;BME280;62056;52.130;5.428;2022-12-18T11:25:04;102775.25;;;-0.48;74.02
73748;BME280;62056;52.130;5.428;2022-12-18T11:27:55;102761.69;;;-0.43;74.41
73748;BME280;62056;52.130;5.428;2022-12-18T11:33:14;102758.25;;;-0.35;74.24
73748;BME280;62056;52.130;5.428;2022-12-18T11:35:49;102762.16;;;-0.31;74.33
73748;BME280;62056;52.130;5.428;2022-12-18T11:38:26;102771.94;;;-0.25;75.19
73748;BME280;62056;52.130;5.428;2022-12-18T11:40:58;102767.34;;;-0.23;74.18
73748;BME280;62056;52.130;5.428;2022-12-18T11:46:06;102770.16;;;-0.16;72.96
73748;BME280;62056;52.130;5.428;2022-12-18T11:48:52;102762.59;;;-0.11;74.50
73748;BME280;62056;52.130;5.428;2022-12-18T11:51:26;102757.06;;;-0.08;74.31
73748;BME280;62056;52.130;5.428;2022-12-18T11:53:55;102759.31;;;-0.05;74.20
73748;BME280;62056;52.130;5.428;2022-12-18T11:56:43;102758.81;;;-0.01;74.40
73748;BME280;62056;52.130;5.428;2022-12-18T11:59:35;102745.41;;;0.03;72.84
73748;BME280;62056;52.130;5.428;2022-12-18T12:18:20;102704.44;;;0.18;72.43
73748;BME280;62056;52.130;5.428;2022-12-18T12:28:52;102689.50;;;0.27;72.09
73748;BME280;62056;52.130;5.428;2022-12-18T12:39:38;102675.56;;;0.34;74.54
73748;BME280;62056;52.130;5.428;2022-12-18T12:42:14;102677.84;;;0.37;72.96
73748;BME280;62056;52.130;5.428;2022-12-18T12:45:05;102671.25;;;0.42;76.31
73748;BME280;62056;52.130;5.428;2022-12-18T12:47:37;102664.09;;;0.35;70.41
73748;BME280;62056;52.130;5.428;2022-12-18T12:50:11;102665.38;;;0.39;73.05
73748;BME280;62056;52.130;5.428;2022-12-18T12:52:53;102652.94;;;0.42;71.92
73748;BME280;62056;52.130;5.428;2022-12-18T12:55:23;102657.03;;;0.44;74.01
73748;BME280;62056;52.130;5.428;2022-12-18T12:58:27;102650.00;;;0.45;71.52
73748;BME280;62056;52.130;5.428;2022-12-18T13:06:33;102641.09;;;0.54;71.29
73748;BME280;62056;52.130;5.428;2022-12-18T13:09:10;102642.56;;;0.56;72.96
73748;BME280;62056;52.130;5.428;2022-12-18T13:11:39;102646.97;;;0.56;70.32
73748;BME280;62056;52.130;5.428;2022-12-18T13:14:27;102638.78;;;0.59;70.65
73748;BME280;62056;52.130;5.428;2022-12-18T13:19:51;102646.09;;;0.64;71.56
73748;BME280;62056;52.130;5.428;2022-12-18T13:22:28;102643.47;;;0.64;70.99
73748;BME280;62056;52.130;5.428;2022-12-18T13:24:57;102645.94;;;0.65;71.13
73748;BME280;62056;52.130;5.428;2022-12-18T13:40:59;102613.78;;;0.71;70.80
73748;BME280;62056;52.130;5.428;2022-12-18T13:43:33;102611.19;;;0.71;70.16
73748;BME280;62056;52.130;5.428;2022-12-18T13:46:18;102613.78;;;0.71;68.81
73748;BME280;62056;52.130;5.428;2022-12-18T13:48:52;102600.50;;;0.73;70.57
73748;BME280;62056;52.130;5.428;2022-12-18T13:51:21;102591.66;;;0.74;71.38
73748;BME280;62056;52.130;5.428;2022-12-18T13:53:53;102589.69;;;0.76;71.83
73748;BME280;62056;52.130;5.428;2022-12-18T13:56:23;102587.72;;;0.78;72.22
73748;BME280;62056;52.130;5.428;2022-12-18T13:59:11;102586.25;;;0.75;71.57
73748;BME280;62056;52.130;5.428;2022-12-18T14:01:47;102580.19;;;0.75;70.01
73748;BME280;62056;52.130;5.428;2022-12-18T14:07:02;102572.16;;;0.76;70.67
73748;BME280;62056;52.130;5.428;2022-12-18T14:09:34;102572.16;;;0.76;71.00
73748;BME280;62056;52.130;5.428;2022-12-18T14:12:06;102572.16;;;0.76;70.60
73748;BME280;62056;52.130;5.428;2022-12-18T14:14:52;102569.38;;;0.78;70.00
73748;BME280;62056;52.130;5.428;2022-12-18T14:17:22;102566.59;;;0.79;70.39
73748;BME280;62056;52.130;5.428;2022-12-18T14:19:50;102548.25;;;0.79;70.79
73748;BME280;62056;52.130;5.428;2022-12-18T14:22:25;102549.06;;;0.80;69.39
73748;BME280;62056;52.130;5.428;2022-12-18T14:30:39;102543.44;;;0.83;69.74
73748;BME280;62056;52.130;5.428;2022-12-18T14:33:10;102538.41;;;0.82;69.44
73748;BME280;62056;52.130;5.428;2022-12-18T14:35:40;102528.38;;;0.85;69.00
73748;BME280;62056;52.130;5.428;2022-12-18T14:38:18;102533.44;;;0.87;68.72
73748;BME280;62056;52.130;5.428;2022-12-18T14:40:46;102531.63;;;0.87;69.52
73748;BME280;62056;52.130;5.428;2022-12-18T14:43:13;102530.63;;;0.88;71.74
73748;BME280;62056;52.130;5.428;2022-12-18T14:45:43;102530.19;;;0.85;69.76
73748;BME280;62056;52.130;5.428;2022-12-18T14:50:39;102522.16;;;0.86;69.96
73748;BME280;62056;52.130;5.428;2022-12-18T14:53:18;102513.47;;;0.86;70.04